Aviation Digital Data Service (ADDS)

Output produced by METARs form (0431 UTC 28 April 2017)
found at http://www.aviationweather.gov/adds/metars/
 
KWWD 280356Z AUTO 17007KT 10SM CLR 16/14 A2987 RMK AO2 SLP118 T01560144